createdAt,value
2019-01-05T00:07:47.850Z,11.60
2019-01-05T00:23:01.514Z,8.07
2019-01-05T00:38:25.297Z,4.17
2019-01-05T00:53:48.562Z,3.17
2019-01-05T01:09:10.796Z,2.27
2019-01-05T01:24:18.469Z,2.80
2019-01-05T01:39:41.713Z,3.00
2019-01-05T01:54:52.180Z,3.00
2019-01-05T02:10:18.160Z,3.30
2019-01-05T02:26:05.284Z,2.60
2019-01-05T02:41:33.730Z,2.20
2019-01-05T02:57:11.779Z,1.53
2019-01-05T03:12:51.365Z,2.07
2019-01-05T03:28:26.175Z,1.27
2019-01-05T03:43:56.692Z,1.40
2019-01-05T03:59:33.379Z,1.50
2019-01-05T04:15:55.782Z,1.70
2019-01-05T04:31:27.627Z,1.30
2019-01-05T04:47:09.380Z,0.90
2019-01-05T05:02:22.781Z,0.87
2019-01-05T05:17:53.316Z,0.90
2019-01-05T05:33:40.459Z,1.10
2019-01-05T05:49:24.710Z,1.57
2019-01-05T06:04:59.080Z,1.35
2019-01-05T06:20:48.066Z,1.05
2019-01-05T06:36:23.048Z,1.10
2019-01-05T06:52:15.995Z,1.47
2019-01-05T07:07:36.522Z,1.30
2019-01-05T07:23:01.755Z,1.60
2019-01-05T07:38:56.367Z,1.30
2019-01-05T07:54:23.683Z,1.17
2019-01-05T08:09:43.327Z,1.37
2019-01-05T08:25:15.188Z,1.90
2019-01-05T08:40:56.012Z,1.90
2019-01-05T08:56:36.441Z,1.63
2019-01-05T09:11:49.981Z,1.40
2019-01-05T09:27:20.943Z,0.70
2019-01-05T09:43:10.091Z,0.60
2019-01-05T09:59:01.676Z,1.05
2019-01-05T10:14:51.131Z,0.83
2019-01-05T10:30:36.705Z,1.20
2019-01-05T10:46:11.649Z,1.47
2019-01-05T11:01:37.388Z,0.98
2019-01-05T11:16:52.829Z,1.03
2019-01-05T11:32:28.006Z,1.17
2019-01-05T11:48:05.935Z,0.70
2019-01-05T12:03:56.073Z,1.20
2019-01-05T12:19:40.232Z,0.80
2019-01-05T12:35:24.264Z,1.03
2019-01-05T12:50:57.934Z,0.70
2019-01-05T13:06:30.820Z,1.40
2019-01-05T13:21:50.652Z,0.60
2019-01-05T13:37:28.520Z,0.80
2019-01-05T13:52:49.943Z,2.53
2019-01-05T14:08:03.899Z,0.63
2019-01-05T14:23:20.779Z,0.80
2019-01-05T14:38:34.234Z,0.85
2019-01-05T14:53:44.639Z,0.73
2019-01-05T15:09:10.120Z,0.33
2019-01-05T15:24:24.247Z,6.67
2019-01-05T15:39:48.314Z,0.63
2019-01-05T15:55:12.384Z,0.80
2019-01-05T16:10:29.379Z,0.70
2019-01-05T16:25:42.811Z,0.40
2019-01-05T16:40:50.671Z,0.67
2019-01-05T16:55:58.381Z,1.33
2019-01-05T17:11:19.425Z,1.33
2019-01-05T17:26:44.172Z,2.13
2019-01-05T17:41:55.252Z,0.60
2019-01-05T17:57:05.741Z,0.57
2019-01-05T18:12:25.512Z,0.70
2019-01-05T18:27:57.397Z,1.17
2019-01-05T18:43:05.009Z,0.87
2019-01-05T18:58:13.468Z,1.40
2019-01-05T19:13:37.710Z,0.80
2019-01-05T19:28:49.208Z,0.80
2019-01-05T19:44:00.820Z,0.70
2019-01-05T19:59:08.531Z,0.50
2019-01-05T20:14:32.456Z,0.50
2019-01-05T20:29:40.333Z,0.77
2019-01-05T20:44:48.195Z,0.80
2019-01-05T21:00:08.567Z,1.20
2019-01-05T21:15:16.614Z,1.70
2019-01-05T21:30:36.559Z,1.77
2019-01-05T21:45:56.418Z,2.30
2019-01-05T22:01:04.201Z,1.67
2019-01-05T22:16:27.550Z,2.02
2019-01-05T22:31:35.127Z,1.10
2019-01-05T22:46:48.638Z,1.80
2019-01-05T23:01:56.107Z,1.30
2019-01-05T23:17:13.040Z,1.50
2019-01-05T23:32:21.056Z,1.55
2019-01-05T23:47:44.878Z,1.23
